createdAt,value
2022-10-05T00:01:01.103Z,83.78
2022-10-05T00:06:13.332Z,83.65
2022-10-05T00:11:18.675Z,83.87
2022-10-05T00:16:25.228Z,84.45
2022-10-05T00:21:27.664Z,84.32
2022-10-05T00:26:33.158Z,84.73
2022-10-05T00:31:38.520Z,84.39
2022-10-05T00:36:44.581Z,85.04
2022-10-05T00:41:54.803Z,84.97
2022-10-05T00:46:57.594Z,85.00
2022-10-05T00:52:28.781Z,86.02
2022-10-05T00:58:08.817Z,85.82
2022-10-05T01:03:16.992Z,86.56
2022-10-05T01:09:13.282Z,86.25
2022-10-05T01:14:40.886Z,87.34
2022-10-05T01:20:15.464Z,86.85
2022-10-05T01:25:41.455Z,87.95
2022-10-05T01:30:54.126Z,87.83
2022-10-05T01:36:00.445Z,87.61
2022-10-05T01:41:04.268Z,87.66
2022-10-05T01:46:15.025Z,88.25
2022-10-05T01:51:39.758Z,88.26
2022-10-05T01:57:03.377Z,88.10
2022-10-05T02:02:09.831Z,88.78
2022-10-05T02:07:28.087Z,88.37
2022-10-05T02:12:35.518Z,88.52
2022-10-05T02:17:47.249Z,88.75
2022-10-05T02:22:54.580Z,89.42
2022-10-05T02:28:19.300Z,89.53
2022-10-05T02:33:34.150Z,88.79
2022-10-05T02:38:53.242Z,89.39
2022-10-05T02:44:23.037Z,88.97
2022-10-05T02:49:43.670Z,89.18
2022-10-05T02:55:10.353Z,89.61
2022-10-05T03:00:19.240Z,89.65
2022-10-05T03:05:25.315Z,89.52
2022-10-05T03:10:33.304Z,90.04
2022-10-05T03:15:47.002Z,89.24
2022-10-05T03:21:01.862Z,90.27
2022-10-05T03:26:30.414Z,89.39
2022-10-05T03:31:45.186Z,89.53
2022-10-05T03:37:09.798Z,90.51
2022-10-05T03:42:29.705Z,90.37
2022-10-05T03:47:40.812Z,90.09
2022-10-05T03:53:05.412Z,89.89
2022-10-05T03:58:24.587Z,90.69
2022-10-05T04:03:56.586Z,90.30
2022-10-05T04:09:13.321Z,90.54
2022-10-05T04:14:34.702Z,90.86
2022-10-05T04:19:53.918Z,90.81
2022-10-05T04:25:23.947Z,91.15
2022-10-05T04:30:28.560Z,91.42
2022-10-05T04:35:43.301Z,91.47
2022-10-05T04:41:17.384Z,92.20
2022-10-05T04:47:13.470Z,92.58
2022-10-05T04:52:35.132Z,92.64
2022-10-05T04:58:17.340Z,92.49
2022-10-05T05:03:28.354Z,93.32
2022-10-05T05:08:48.638Z,93.35
2022-10-05T05:14:17.215Z,92.52
2022-10-05T05:19:43.417Z,93.48
2022-10-05T05:25:04.518Z,92.67
2022-10-05T05:30:18.343Z,93.18
2022-10-05T05:35:23.813Z,93.34
2022-10-05T05:40:30.611Z,93.88
2022-10-05T05:45:48.466Z,92.98
2022-10-05T05:51:03.937Z,93.44
2022-10-05T05:56:12.690Z,94.00
2022-10-05T06:01:33.204Z,94.00
2022-10-05T06:06:49.452Z,94.86
2022-10-05T06:11:58.617Z,94.72
2022-10-05T06:17:12.418Z,95.20
2022-10-05T06:22:27.022Z,95.23
2022-10-05T06:27:56.766Z,95.49
2022-10-05T06:33:20.510Z,95.78
2022-10-05T06:38:57.742Z,95.64
2022-10-05T06:43:59.498Z,95.78
2022-10-05T06:49:38.484Z,95.46
2022-10-05T06:55:28.543Z,96.47
2022-10-05T07:00:42.671Z,96.18
2022-10-05T07:05:54.269Z,96.57
2022-10-05T07:10:59.715Z,96.37
2022-10-05T07:16:28.544Z,96.08
2022-10-05T07:21:42.717Z,96.20
2022-10-05T07:26:51.423Z,97.00
2022-10-05T07:32:09.634Z,95.97
2022-10-05T07:37:36.191Z,95.80
2022-10-05T07:42:50.724Z,95.88
2022-10-05T07:48:04.140Z,96.08
2022-10-05T07:53:31.314Z,96.40
2022-10-05T07:58:42.620Z,95.42
2022-10-05T08:03:46.559Z,95.47
2022-10-05T08:09:02.730Z,94.91
2022-10-05T08:14:55.117Z,94.13
2022-10-05T08:20:21.530Z,93.84
2022-10-05T08:25:33.639Z,93.14
2022-10-05T08:30:49.972Z,92.74
2022-10-05T08:36:12.720Z,92.33
2022-10-05T08:41:32.763Z,92.29
2022-10-05T08:47:30.016Z,91.81
2022-10-05T08:53:00.636Z,90.41
2022-10-05T08:58:36.118Z,89.75
2022-10-05T09:04:04.900Z,89.98
2022-10-05T09:09:22.027Z,89.46
2022-10-05T09:15:26.716Z,88.28
2022-10-05T09:20:53.949Z,87.79
2022-10-05T09:26:06.933Z,88.08
2022-10-05T09:31:19.030Z,86.69
2022-10-05T09:37:01.734Z,86.20
2022-10-05T09:42:43.904Z,86.40
2022-10-05T09:47:54.723Z,86.26
2022-10-05T09:53:30.137Z,85.38
2022-10-05T09:58:54.810Z,85.37
2022-10-05T10:04:24.744Z,84.44
2022-10-05T10:09:39.482Z,83.92
2022-10-05T10:15:13.499Z,83.29
2022-10-05T10:20:26.673Z,83.07
2022-10-05T10:25:47.143Z,83.76
2022-10-05T10:31:00.600Z,83.33
2022-10-05T10:36:41.390Z,82.98
2022-10-05T10:42:15.680Z,82.40
2022-10-05T10:47:55.431Z,81.46
2022-10-05T10:53:18.560Z,81.11
2022-10-05T10:58:37.677Z,81.33
2022-10-05T11:04:36.449Z,80.36
2022-10-05T11:10:16.356Z,80.80
2022-10-05T11:16:03.136Z,80.95
2022-10-05T11:21:05.068Z,79.81
2022-10-05T11:26:25.674Z,80.35
2022-10-05T11:31:37.493Z,78.79
2022-10-05T11:36:50.708Z,78.20
2022-10-05T11:42:02.668Z,77.87
2022-10-05T11:47:09.426Z,77.53
2022-10-05T11:52:30.812Z,77.94
2022-10-05T11:57:38.825Z,78.76
2022-10-05T12:03:15.802Z,78.14
2022-10-05T12:08:25.471Z,78.39
2022-10-05T12:13:53.566Z,77.87
2022-10-05T12:19:00.322Z,78.15
2022-10-05T12:24:21.264Z,79.01
2022-10-05T12:29:39.721Z,79.02
2022-10-05T12:35:01.405Z,80.44
2022-10-05T12:40:27.151Z,78.87
2022-10-05T12:45:59.215Z,79.34
2022-10-05T12:51:14.288Z,78.40
2022-10-05T12:56:43.827Z,78.94
2022-10-05T13:01:49.446Z,78.73
2022-10-05T13:07:01.327Z,78.50
2022-10-05T13:12:14.552Z,79.06
2022-10-05T13:17:38.212Z,78.36
2022-10-05T13:22:42.434Z,78.44
2022-10-05T13:28:00.905Z,79.71
2022-10-05T13:33:11.430Z,79.39
2022-10-05T13:38:52.891Z,79.16
2022-10-05T13:44:27.910Z,78.63
2022-10-05T13:49:37.635Z,78.72
2022-10-05T13:54:54.722Z,80.32
2022-10-05T14:00:26.364Z,79.64
2022-10-05T14:05:33.499Z,80.00
2022-10-05T14:10:41.107Z,79.07
2022-10-05T14:15:56.568Z,78.73
2022-10-05T14:21:13.662Z,79.40
2022-10-05T14:26:36.334Z,78.56
2022-10-05T14:31:53.055Z,77.52
2022-10-05T14:37:21.450Z,75.53
2022-10-05T14:42:27.655Z,71.59
2022-10-05T14:47:32.231Z,67.72
2022-10-05T14:52:38.523Z,67.47
2022-10-05T14:57:53.839Z,65.57
2022-10-05T15:03:18.057Z,65.96
2022-10-05T15:08:25.734Z,67.37
2022-10-05T15:13:33.922Z,70.70
2022-10-05T15:19:00.447Z,71.25
2022-10-05T15:24:05.748Z,72.69
2022-10-05T15:29:22.373Z,73.30
2022-10-05T15:34:32.821Z,72.81
2022-10-05T15:39:52.675Z,73.74
2022-10-05T15:44:56.989Z,74.11
2022-10-05T15:50:06.699Z,74.74
2022-10-05T15:55:23.027Z,74.97
2022-10-05T16:00:33.535Z,76.10
2022-10-05T16:05:57.008Z,76.74
2022-10-05T16:11:15.756Z,77.02
2022-10-05T16:16:30.423Z,77.24
2022-10-05T16:21:51.600Z,78.05
2022-10-05T16:26:54.830Z,78.00
2022-10-05T16:32:36.819Z,78.35
2022-10-05T16:38:13.749Z,79.31
2022-10-05T16:43:39.939Z,79.79
2022-10-05T16:49:24.288Z,80.24
2022-10-05T16:54:38.207Z,79.94
2022-10-05T16:59:40.189Z,80.19
2022-10-05T17:05:00.840Z,80.79
2022-10-05T17:10:49.252Z,80.76
2022-10-05T17:16:01.301Z,80.94
2022-10-05T17:21:17.825Z,81.56
2022-10-05T17:26:41.392Z,82.52
2022-10-05T17:32:09.233Z,83.20
2022-10-05T17:37:18.835Z,83.17
2022-10-05T17:42:29.162Z,83.46
2022-10-05T17:48:03.745Z,83.51
2022-10-05T17:53:54.774Z,83.26
2022-10-05T17:59:01.822Z,83.36
2022-10-05T18:04:13.807Z,84.45
2022-10-05T18:09:23.036Z,83.16
2022-10-05T18:14:27.647Z,82.64
2022-10-05T18:19:33.300Z,82.17
2022-10-05T18:24:45.304Z,82.31
2022-10-05T18:30:06.054Z,81.86
2022-10-05T18:35:25.828Z,80.97
2022-10-05T18:41:12.839Z,80.08
2022-10-05T18:46:38.773Z,79.22
2022-10-05T18:51:52.010Z,79.85
2022-10-05T18:56:56.786Z,78.87
2022-10-05T19:02:04.543Z,79.04
2022-10-05T19:08:08.758Z,78.92
2022-10-05T19:13:16.847Z,77.97
2022-10-05T19:18:21.899Z,77.72
2022-10-05T19:23:45.809Z,77.77
2022-10-05T19:29:02.200Z,77.79
2022-10-05T19:34:25.492Z,77.78
2022-10-05T19:39:38.665Z,77.34
2022-10-05T19:45:17.499Z,77.61
2022-10-05T19:50:27.828Z,77.82
2022-10-05T19:55:47.748Z,77.55
2022-10-05T20:00:55.554Z,77.61
2022-10-05T20:06:01.587Z,77.45
2022-10-05T20:11:16.454Z,80.74
2022-10-05T20:16:39.926Z,81.77
2022-10-05T20:21:56.575Z,83.47
2022-10-05T20:27:05.179Z,84.20
2022-10-05T20:32:15.254Z,83.50
2022-10-05T20:37:20.542Z,83.79
2022-10-05T20:42:26.819Z,84.31
2022-10-05T20:47:30.914Z,85.10
2022-10-05T20:52:37.668Z,85.34
2022-10-05T20:57:47.405Z,87.62
2022-10-05T21:02:53.630Z,92.83
2022-10-05T21:07:57.451Z,93.68
2022-10-05T21:13:02.799Z,96.29
2022-10-05T21:18:04.464Z,96.31
2022-10-05T21:23:06.183Z,96.30
2022-10-05T21:28:09.988Z,97.28
2022-10-05T21:33:12.202Z,97.45
2022-10-05T21:38:16.434Z,98.41
2022-10-05T21:43:20.732Z,99.15
2022-10-05T21:48:23.540Z,99.74
2022-10-05T21:53:27.915Z,99.33
2022-10-05T21:58:34.561Z,100.00
2022-10-05T22:03:36.525Z,99.14
2022-10-05T22:08:38.572Z,98.64
2022-10-05T22:13:48.637Z,98.90
2022-10-05T22:18:51.787Z,97.64
2022-10-05T22:23:55.788Z,96.87
2022-10-05T22:28:58.725Z,94.63
2022-10-05T22:34:03.183Z,93.99
2022-10-05T22:39:05.009Z,92.72
2022-10-05T22:44:09.445Z,92.94
2022-10-05T22:49:15.983Z,92.27
2022-10-05T22:54:26.284Z,92.81
2022-10-05T22:59:32.761Z,92.39
2022-10-05T23:04:36.581Z,92.35
2022-10-05T23:09:38.342Z,92.20
2022-10-05T23:14:43.429Z,92.08
2022-10-05T23:19:49.811Z,91.38
2022-10-05T23:24:54.618Z,91.90
2022-10-05T23:29:58.453Z,92.00
2022-10-05T23:35:08.234Z,92.28
2022-10-05T23:40:12.551Z,92.60
2022-10-05T23:45:17.789Z,93.28
2022-10-05T23:50:24.936Z,93.99
2022-10-05T23:55:26.722Z,94.34
